sensor_id;sensor_type;location;lat;lon;timestamp;pressure;altitude;pressure_sealevel;temperature;humidity
53300;BME280;39187;48.476;8.310;2023-12-14T00:00:19;90166.94;;;3.25;100.00
53300;BME280;39187;48.476;8.310;2023-12-14T00:02:44;90171.13;;;3.19;100.00
53300;BME280;39187;48.476;8.310;2023-12-14T00:05:10;90175.50;;;3.33;100.00
53300;BME280;39187;48.476;8.310;2023-12-14T00:07:36;90175.44;;;3.36;100.00
53300;BME280;39187;48.476;8.310;2023-12-14T00:10:01;90186.00;;;3.33;100.00
53300;BME280;39187;48.476;8.310;2023-12-14T00:12:28;90188.78;;;3.18;100.00
53300;BME280;39187;48.476;8.310;2023-12-14T00:14:53;90194.97;;;3.35;100.00
53300;BME280;39187;48.476;8.310;2023-12-14T00:17:19;90197.22;;;3.37;100.00
53300;BME280;39187;48.476;8.310;2023-12-14T00:19:44;90193.78;;;3.43;100.00
53300;BME280;39187;48.476;8.310;2023-12-14T00:22:10;90198.50;;;3.21;100.00
53300;BME280;39187;48.476;8.310;2023-12-14T00:24:36;90202.25;;;3.24;100.00
53300;BME280;39187;48.476;8.310;2023-12-14T00:27:01;90201.00;;;3.36;100.00
53300;BME280;39187;48.476;8.310;2023-12-14T00:29:27;90205.03;;;3.44;100.00
53300;BME280;39187;48.476;8.310;2023-12-14T00:31:52;90212.25;;;3.36;100.00
53300;BME280;39187;48.476;8.310;2023-12-14T00:34:18;90210.75;;;3.35;100.00
53300;BME280;39187;48.476;8.310;2023-12-14T00:36:43;90215.28;;;3.35;100.00
53300;BME280;39187;48.476;8.310;2023-12-14T00:39:09;90207.81;;;3.30;100.00
53300;BME280;39187;48.476;8.310;2023-12-14T00:41:34;90205.88;;;3.37;100.00
53300;BME280;39187;48.476;8.310;2023-12-14T00:44:00;90213.72;;;3.41;100.00
53300;BME280;39187;48.476;8.310;2023-12-14T00:46:25;90216.09;;;3.28;100.00
53300;BME280;39187;48.476;8.310;2023-12-14T00:48:51;90216.38;;;3.37;100.00
53300;BME280;39187;48.476;8.310;2023-12-14T00:51:16;90225.69;;;3.45;100.00
53300;BME280;39187;48.476;8.310;2023-12-14T00:53:42;90226.03;;;3.47;100.00
53300;BME280;39187;48.476;8.310;2023-12-14T00:56:08;90230.22;;;3.45;100.00
53300;BME280;39187;48.476;8.310;2023-12-14T00:58:34;90231.53;;;3.26;100.00
53300;BME280;39187;48.476;8.310;2023-12-14T01:00:59;90231.50;;;3.30;100.00
53300;BME280;39187;48.476;8.310;2023-12-14T01:03:24;90237.25;;;3.17;100.00
53300;BME280;39187;48.476;8.310;2023-12-14T01:05:50;90230.63;;;3.40;100.00
53300;BME280;39187;48.476;8.310;2023-12-14T01:08:15;90235.94;;;3.36;100.00
53300;BME280;39187;48.476;8.310;2023-12-14T01:10:41;90244.63;;;3.30;100.00
53300;BME280;39187;48.476;8.310;2023-12-14T01:13:06;90238.19;;;3.34;100.00
53300;BME280;39187;48.476;8.310;2023-12-14T01:15:33;90244.88;;;3.42;100.00
53300;BME280;39187;48.476;8.310;2023-12-14T01:17:58;90247.47;;;3.46;100.00
53300;BME280;39187;48.476;8.310;2023-12-14T01:20:24;90251.19;;;3.48;100.00
53300;BME280;39187;48.476;8.310;2023-12-14T01:22:49;90251.28;;;3.41;100.00
53300;BME280;39187;48.476;8.310;2023-12-14T01:25:15;90262.09;;;3.13;100.00
53300;BME280;39187;48.476;8.310;2023-12-14T01:27:40;90257.72;;;2.99;100.00
53300;BME280;39187;48.476;8.310;2023-12-14T01:30:06;90267.25;;;3.23;100.00
53300;BME280;39187;48.476;8.310;2023-12-14T01:32:33;90273.56;;;3.30;100.00
53300;BME280;39187;48.476;8.310;2023-12-14T01:34:58;90273.88;;;3.35;100.00
53300;BME280;39187;48.476;8.310;2023-12-14T01:37:23;90279.44;;;3.03;100.00
53300;BME280;39187;48.476;8.310;2023-12-14T01:39:49;90288.22;;;3.27;100.00
53300;BME280;39187;48.476;8.310;2023-12-14T01:42:14;90292.28;;;3.35;100.00
53300;BME280;39187;48.476;8.310;2023-12-14T01:44:40;90288.97;;;3.28;100.00
53300;BME280;39187;48.476;8.310;2023-12-14T01:47:05;90297.66;;;3.25;100.00
53300;BME280;39187;48.476;8.310;2023-12-14T01:49:31;90295.84;;;3.18;100.00
53300;BME280;39187;48.476;8.310;2023-12-14T01:51:56;90301.09;;;3.18;100.00
53300;BME280;39187;48.476;8.310;2023-12-14T01:54:22;90300.34;;;3.17;100.00
53300;BME280;39187;48.476;8.310;2023-12-14T01:56:47;90305.19;;;3.22;100.00
53300;BME280;39187;48.476;8.310;2023-12-14T01:59:13;90315.00;;;3.18;100.00
53300;BME280;39187;48.476;8.310;2023-12-14T02:01:43;90312.69;;;3.24;100.00
53300;BME280;39187;48.476;8.310;2023-12-14T02:04:11;90314.19;;;3.21;100.00
53300;BME280;39187;48.476;8.310;2023-12-14T02:06:37;90314.78;;;2.99;100.00
53300;BME280;39187;48.476;8.310;2023-12-14T02:09:03;90323.66;;;3.15;100.00
53300;BME280;39187;48.476;8.310;2023-12-14T02:11:29;90335.66;;;3.16;100.00
53300;BME280;39187;48.476;8.310;2023-12-14T02:13:55;90327.38;;;3.18;100.00
53300;BME280;39187;48.476;8.310;2023-12-14T02:16:20;90330.00;;;3.18;100.00
53300;BME280;39187;48.476;8.310;2023-12-14T02:18:46;90330.72;;;3.22;100.00
53300;BME280;39187;48.476;8.310;2023-12-14T02:21:11;90322.50;;;3.16;100.00
53300;BME280;39187;48.476;8.310;2023-12-14T02:23:44;90325.84;;;3.20;100.00
53300;BME280;39187;48.476;8.310;2023-12-14T02:26:13;90320.72;;;3.06;100.00
53300;BME280;39187;48.476;8.310;2023-12-14T02:28:39;90322.88;;;3.18;100.00
53300;BME280;39187;48.476;8.310;2023-12-14T02:31:05;90334.47;;;3.25;100.00
53300;BME280;39187;48.476;8.310;2023-12-14T02:33:30;90341.34;;;3.11;100.00
53300;BME280;39187;48.476;8.310;2023-12-14T02:35:56;90340.97;;;3.13;100.00
53300;BME280;39187;48.476;8.310;2023-12-14T02:38:21;90342.84;;;3.12;100.00
53300;BME280;39187;48.476;8.310;2023-12-14T02:40:47;90351.94;;;2.97;100.00
53300;BME280;39187;48.476;8.310;2023-12-14T02:43:13;90355.28;;;3.05;100.00
53300;BME280;39187;48.476;8.310;2023-12-14T02:45:38;90353.06;;;3.00;100.00
53300;BME280;39187;48.476;8.310;2023-12-14T02:48:04;90353.16;;;2.86;100.00
53300;BME280;39187;48.476;8.310;2023-12-14T02:50:29;90363.13;;;3.08;100.00
53300;BME280;39187;48.476;8.310;2023-12-14T02:52:55;90359.88;;;2.94;100.00
53300;BME280;39187;48.476;8.310;2023-12-14T02:55:21;90364.06;;;2.88;100.00
53300;BME280;39187;48.476;8.310;2023-12-14T02:57:46;90371.41;;;3.07;100.00
53300;BME280;39187;48.476;8.310;2023-12-14T03:00:12;90370.69;;;3.03;100.00
53300;BME280;39187;48.476;8.310;2023-12-14T03:02:38;90376.25;;;3.12;100.00
53300;BME280;39187;48.476;8.310;2023-12-14T03:05:03;90376.59;;;3.14;100.00
53300;BME280;39187;48.476;8.310;2023-12-14T03:07:29;90391.56;;;3.20;100.00
53300;BME280;39187;48.476;8.310;2023-12-14T03:09:54;90374.66;;;3.25;100.00
53300;BME280;39187;48.476;8.310;2023-12-14T03:12:20;90381.00;;;3.28;100.00
53300;BME280;39187;48.476;8.310;2023-12-14T03:14:45;90389.66;;;3.28;100.00
53300;BME280;39187;48.476;8.310;2023-12-14T03:17:11;90389.75;;;3.14;100.00
53300;BME280;39187;48.476;8.310;2023-12-14T03:19:41;90388.16;;;3.27;100.00
53300;BME280;39187;48.476;8.310;2023-12-14T03:22:08;90389.66;;;3.28;100.00
53300;BME280;39187;48.476;8.310;2023-12-14T03:24:35;90394.53;;;3.30;100.00
53300;BME280;39187;48.476;8.310;2023-12-14T03:27:02;90400.22;;;3.21;100.00
53300;BME280;39187;48.476;8.310;2023-12-14T03:29:28;90403.97;;;3.23;100.00
53300;BME280;39187;48.476;8.310;2023-12-14T03:31:55;90410.34;;;3.22;100.00
53300;BME280;39187;48.476;8.310;2023-12-14T03:34:21;90406.63;;;3.20;100.00
53300;BME280;39187;48.476;8.310;2023-12-14T03:36:46;90416.34;;;3.23;100.00
53300;BME280;39187;48.476;8.310;2023-12-14T03:39:12;90424.25;;;3.23;100.00
53300;BME280;39187;48.476;8.310;2023-12-14T03:41:37;90428.38;;;3.24;100.00
53300;BME280;39187;48.476;8.310;2023-12-14T03:44:03;90430.34;;;3.09;100.00
53300;BME280;39187;48.476;8.310;2023-12-14T03:46:29;90426.91;;;3.19;100.00
53300;BME280;39187;48.476;8.310;2023-12-14T03:48:55;90434.84;;;3.09;100.00
53300;BME280;39187;48.476;8.310;2023-12-14T03:51:20;90436.81;;;2.98;100.00
53300;BME280;39187;48.476;8.310;2023-12-14T03:53:46;90449.97;;;2.94;100.00
53300;BME280;39187;48.476;8.310;2023-12-14T03:56:12;90451.03;;;3.04;100.00
53300;BME280;39187;48.476;8.310;2023-12-14T03:58:37;90458.22;;;2.96;100.00
53300;BME280;39187;48.476;8.310;2023-12-14T04:01:03;90461.94;;;3.02;100.00
53300;BME280;39187;48.476;8.310;2023-12-14T04:03:29;90457.09;;;2.97;100.00
53300;BME280;39187;48.476;8.310;2023-12-14T04:05:54;90463.94;;;2.80;100.00
53300;BME280;39187;48.476;8.310;2023-12-14T04:08:20;90465.38;;;2.92;100.00
53300;BME280;39187;48.476;8.310;2023-12-14T04:10:45;90465.00;;;2.94;100.00
53300;BME280;39187;48.476;8.310;2023-12-14T04:13:11;90475.53;;;2.87;100.00
53300;BME280;39187;48.476;8.310;2023-12-14T04:15:37;90476.66;;;2.89;100.00
53300;BME280;39187;48.476;8.310;2023-12-14T04:18:02;90476.94;;;3.02;100.00
53300;BME280;39187;48.476;8.310;2023-12-14T04:20:28;90476.19;;;3.05;100.00
53300;BME280;39187;48.476;8.310;2023-12-14T04:22:53;90483.00;;;2.99;100.00
53300;BME280;39187;48.476;8.310;2023-12-14T04:25:19;90490.06;;;3.12;100.00
53300;BME280;39187;48.476;8.310;2023-12-14T04:27:44;90494.22;;;3.06;100.00
53300;BME280;39187;48.476;8.310;2023-12-14T04:30:10;90495.38;;;2.95;100.00
53300;BME280;39187;48.476;8.310;2023-12-14T04:32:36;90497.63;;;2.96;100.00
53300;BME280;39187;48.476;8.310;2023-12-14T04:35:02;90496.84;;;3.06;100.00
53300;BME280;39187;48.476;8.310;2023-12-14T04:37:28;90501.34;;;3.06;100.00
53300;BME280;39187;48.476;8.310;2023-12-14T04:39:55;90507.72;;;3.08;100.00
53300;BME280;39187;48.476;8.310;2023-12-14T04:42:21;90507.03;;;2.97;100.00
53300;BME280;39187;48.476;8.310;2023-12-14T04:44:46;90508.91;;;3.00;100.00
53300;BME280;39187;48.476;8.310;2023-12-14T04:47:12;90514.13;;;3.04;100.00
53300;BME280;39187;48.476;8.310;2023-12-14T04:49:37;90516.38;;;3.05;100.00
53300;BME280;39187;48.476;8.310;2023-12-14T04:52:03;90519.75;;;3.02;100.00
53300;BME280;39187;48.476;8.310;2023-12-14T04:54:29;90523.91;;;3.00;100.00
53300;BME280;39187;48.476;8.310;2023-12-14T04:56:54;90525.78;;;2.99;100.00
53300;BME280;39187;48.476;8.310;2023-12-14T04:59:20;90528.75;;;3.08;100.00
53300;BME280;39187;48.476;8.310;2023-12-14T05:01:45;90533.63;;;3.13;100.00
53300;BME280;39187;48.476;8.310;2023-12-14T05:04:11;90541.88;;;3.12;100.00
53300;BME280;39187;48.476;8.310;2023-12-14T05:06:38;90537.34;;;3.16;100.00
53300;BME280;39187;48.476;8.310;2023-12-14T05:09:03;90543.72;;;3.15;100.00
53300;BME280;39187;48.476;8.310;2023-12-14T05:11:31;90545.97;;;3.16;100.00
53300;BME280;39187;48.476;8.310;2023-12-14T05:13:56;90552.78;;;3.10;100.00
53300;BME280;39187;48.476;8.310;2023-12-14T05:16:23;90562.13;;;3.15;100.00
53300;BME280;39187;48.476;8.310;2023-12-14T05:18:52;90561.41;;;3.07;100.00
53300;BME280;39187;48.476;8.310;2023-12-14T05:21:18;90573.50;;;2.94;100.00
53300;BME280;39187;48.476;8.310;2023-12-14T05:23:43;90572.34;;;2.99;100.00
53300;BME280;39187;48.476;8.310;2023-12-14T05:26:09;90584.69;;;3.12;100.00
53300;BME280;39187;48.476;8.310;2023-12-14T05:28:34;90580.25;;;2.99;100.00
53300;BME280;39187;48.476;8.310;2023-12-14T05:31:00;90583.97;;;3.01;100.00
53300;BME280;39187;48.476;8.310;2023-12-14T05:33:26;90592.97;;;3.04;100.00
53300;BME280;39187;48.476;8.310;2023-12-14T05:35:52;90595.22;;;3.02;100.00
53300;BME280;39187;48.476;8.310;2023-12-14T05:38:17;90596.00;;;2.99;100.00
53300;BME280;39187;48.476;8.310;2023-12-14T05:40:43;90600.50;;;2.98;100.00
53300;BME280;39187;48.476;8.310;2023-12-14T05:43:10;90598.63;;;2.99;100.00
53300;BME280;39187;48.476;8.310;2023-12-14T05:45:35;90601.59;;;3.08;100.00
53300;BME280;39187;48.476;8.310;2023-12-14T05:48:01;90604.97;;;3.12;100.00
53300;BME280;39187;48.476;8.310;2023-12-14T05:50:27;90619.25;;;3.07;100.00
53300;BME280;39187;48.476;8.310;2023-12-14T05:52:53;90618.47;;;3.17;100.00
53300;BME280;39187;48.476;8.310;2023-12-14T05:55:19;90626.72;;;3.16;100.00
53300;BME280;39187;48.476;8.310;2023-12-14T05:57:48;90635.38;;;3.20;100.00
53300;BME280;39187;48.476;8.310;2023-12-14T06:00:14;90629.00;;;3.14;100.00
53300;BME280;39187;48.476;8.310;2023-12-14T06:02:39;90634.66;;;3.05;100.00
53300;BME280;39187;48.476;8.310;2023-12-14T06:05:06;90642.88;;;3.18;100.00
53300;BME280;39187;48.476;8.310;2023-12-14T06:07:32;90640.69;;;3.06;100.00
53300;BME280;39187;48.476;8.310;2023-12-14T06:09:58;90645.22;;;2.91;100.00
53300;BME280;39187;48.476;8.310;2023-12-14T06:12:24;90646.69;;;2.99;100.00
53300;BME280;39187;48.476;8.310;2023-12-14T06:14:49;90645.16;;;3.09;100.00
53300;BME280;39187;48.476;8.310;2023-12-14T06:17:15;90655.69;;;3.12;100.00
53300;BME280;39187;48.476;8.310;2023-12-14T06:19:41;90651.94;;;2.96;100.00
53300;BME280;39187;48.476;8.310;2023-12-14T06:22:07;90669.59;;;3.02;100.00
53300;BME280;39187;48.476;8.310;2023-12-14T06:24:32;90663.97;;;3.04;100.00
53300;BME280;39187;48.476;8.310;2023-12-14T06:26:58;90674.06;;;3.16;100.00
53300;BME280;39187;48.476;8.310;2023-12-14T06:29:23;90675.53;;;3.20;100.00
53300;BME280;39187;48.476;8.310;2023-12-14T06:31:49;90689.13;;;3.05;100.00
53300;BME280;39187;48.476;8.310;2023-12-14T06:34:14;90674.09;;;3.12;100.00
53300;BME280;39187;48.476;8.310;2023-12-14T06:36:44;90684.59;;;3.19;100.00
53300;BME280;39187;48.476;8.310;2023-12-14T06:39:09;90690.97;;;3.11;100.00
53300;BME280;39187;48.476;8.310;2023-12-14T06:41:36;90698.50;;;3.09;100.00
53300;BME280;39187;48.476;8.310;2023-12-14T06:44:01;90699.25;;;3.13;100.00
53300;BME280;39187;48.476;8.310;2023-12-14T06:46:27;90705.22;;;3.14;100.00
53300;BME280;39187;48.476;8.310;2023-12-14T06:48:53;90703.00;;;2.95;100.00
53300;BME280;39187;48.476;8.310;2023-12-14T06:51:19;90706.38;;;3.13;100.00
53300;BME280;39187;48.476;8.310;2023-12-14T06:53:45;90712.41;;;3.06;100.00
53300;BME280;39187;48.476;8.310;2023-12-14T06:56:11;90721.38;;;3.16;100.00
53300;BME280;39187;48.476;8.310;2023-12-14T06:58:41;90718.78;;;3.05;100.00
53300;BME280;39187;48.476;8.310;2023-12-14T07:01:07;90728.16;;;3.10;100.00
53300;BME280;39187;48.476;8.310;2023-12-14T07:03:33;90737.94;;;3.20;100.00
53300;BME280;39187;48.476;8.310;2023-12-14T07:05:59;90741.69;;;3.19;100.00
53300;BME280;39187;48.476;8.310;2023-12-14T07:08:24;90739.44;;;3.07;100.00
53300;BME280;39187;48.476;8.310;2023-12-14T07:10:50;90747.28;;;3.14;100.00
53300;BME280;39187;48.476;8.310;2023-12-14T07:13:16;90747.31;;;3.03;100.00
53300;BME280;39187;48.476;8.310;2023-12-14T07:15:41;90752.59;;;2.96;100.00
53300;BME280;39187;48.476;8.310;2023-12-14T07:18:07;90760.06;;;3.15;100.00
53300;BME280;39187;48.476;8.310;2023-12-14T07:20:32;90766.09;;;3.12;100.00
53300;BME280;39187;48.476;8.310;2023-12-14T07:22:58;90761.94;;;3.22;100.00
53300;BME280;39187;48.476;8.310;2023-12-14T07:25:23;90771.72;;;3.25;100.00
53300;BME280;39187;48.476;8.310;2023-12-14T07:27:49;90778.84;;;3.17;100.00
53300;BME280;39187;48.476;8.310;2023-12-14T07:30:16;90781.47;;;3.25;100.00
53300;BME280;39187;48.476;8.310;2023-12-14T07:32:42;90784.09;;;3.14;100.00
53300;BME280;39187;48.476;8.310;2023-12-14T07:35:07;90787.50;;;3.11;100.00
53300;BME280;39187;48.476;8.310;2023-12-14T07:37:33;90799.16;;;3.17;100.00
53300;BME280;39187;48.476;8.310;2023-12-14T07:39:59;90792.75;;;3.25;100.00
53300;BME280;39187;48.476;8.310;2023-12-14T07:42:24;90802.88;;;3.27;100.00
53300;BME280;39187;48.476;8.310;2023-12-14T07:44:51;90803.25;;;3.29;100.00
53300;BME280;39187;48.476;8.310;2023-12-14T07:47:16;90808.13;;;3.27;100.00
53300;BME280;39187;48.476;8.310;2023-12-14T07:49:42;90807.75;;;3.35;100.00
53300;BME280;39187;48.476;8.310;2023-12-14T07:52:07;90820.16;;;3.31;100.00
53300;BME280;39187;48.476;8.310;2023-12-14T07:54:34;90820.53;;;3.30;100.00
53300;BME280;39187;48.476;8.310;2023-12-14T07:57:00;90834.06;;;3.42;100.00
53300;BME280;39187;48.476;8.310;2023-12-14T07:59:25;90827.69;;;3.36;100.00
53300;BME280;39187;48.476;8.310;2023-12-14T08:01:50;90839.69;;;3.41;100.00
53300;BME280;39187;48.476;8.310;2023-12-14T08:04:16;90844.56;;;3.49;100.00
53300;BME280;39187;48.476;8.310;2023-12-14T08:06:41;90838.16;;;3.54;100.00
53300;BME280;39187;48.476;8.310;2023-12-14T08:09:07;90852.84;;;3.51;100.00
53300;BME280;39187;48.476;8.310;2023-12-14T08:11:33;90851.31;;;3.47;100.00
53300;BME280;39187;48.476;8.310;2023-12-14T08:13:59;90859.59;;;3.56;100.00
53300;BME280;39187;48.476;8.310;2023-12-14T08:16:24;90861.84;;;3.54;100.00
53300;BME280;39187;48.476;8.310;2023-12-14T08:18:50;90864.50;;;3.57;100.00
53300;BME280;39187;48.476;8.310;2023-12-14T08:21:18;90872.75;;;3.42;100.00
53300;BME280;39187;48.476;8.310;2023-12-14T08:23:44;90878.41;;;3.51;100.00
53300;BME280;39187;48.476;8.310;2023-12-14T08:26:09;90873.13;;;3.61;100.00
53300;BME280;39187;48.476;8.310;2023-12-14T08:28:37;90880.28;;;3.65;100.00
53300;BME280;39187;48.476;8.310;2023-12-14T08:31:03;90886.66;;;3.67;100.00
53300;BME280;39187;48.476;8.310;2023-12-14T08:33:29;90891.91;;;3.67;100.00
53300;BME280;39187;48.476;8.310;2023-12-14T08:35:55;90899.41;;;3.76;100.00
53300;BME280;39187;48.476;8.310;2023-12-14T08:38:21;90904.31;;;3.74;100.00
53300;BME280;39187;48.476;8.310;2023-12-14T08:40:47;90909.94;;;3.76;100.00
53300;BME280;39187;48.476;8.310;2023-12-14T08:43:12;90912.59;;;3.69;100.00
53300;BME280;39187;48.476;8.310;2023-12-14T08:45:38;90910.69;;;3.83;100.00
53300;BME280;39187;48.476;8.310;2023-12-14T08:48:04;90930.25;;;3.79;100.00
53300;BME280;39187;48.476;8.310;2023-12-14T08:50:29;90924.97;;;3.82;100.00
53300;BME280;39187;48.476;8.310;2023-12-14T08:52:55;90938.13;;;3.79;100.00
53300;BME280;39187;48.476;8.310;2023-12-14T08:55:20;90935.13;;;3.84;100.00
53300;BME280;39187;48.476;8.310;2023-12-14T08:57:47;90948.28;;;3.91;100.00
53300;BME280;39187;48.476;8.310;2023-12-14T09:00:13;90955.44;;;3.90;100.00
53300;BME280;39187;48.476;8.310;2023-12-14T09:02:38;90955.81;;;3.96;100.00
53300;BME280;39187;48.476;8.310;2023-12-14T09:05:04;90967.09;;;3.96;100.00
53300;BME280;39187;48.476;8.310;2023-12-14T09:07:32;90967.47;;;3.84;100.00
53300;BME280;39187;48.476;8.310;2023-12-14T09:09:58;90975.75;;;3.90;100.00
53300;BME280;39187;48.476;8.310;2023-12-14T09:12:23;90971.22;;;3.97;100.00
53300;BME280;39187;48.476;8.310;2023-12-14T09:14:49;90977.25;;;4.01;100.00
53300;BME280;39187;48.476;8.310;2023-12-14T09:17:14;90980.25;;;4.00;100.00
53300;BME280;39187;48.476;8.310;2023-12-14T09:19:40;90992.66;;;3.99;100.00
53300;BME280;39187;48.476;8.310;2023-12-14T09:22:05;90994.91;;;4.01;100.00
53300;BME280;39187;48.476;8.310;2023-12-14T09:24:31;91004.31;;;3.95;100.00
53300;BME280;39187;48.476;8.310;2023-12-14T09:26:56;91003.56;;;4.01;100.00
53300;BME280;39187;48.476;8.310;2023-12-14T09:29:22;91011.84;;;3.96;100.00
53300;BME280;39187;48.476;8.310;2023-12-14T09:31:47;91005.47;;;3.90;100.00
53300;BME280;39187;48.476;8.310;2023-12-14T09:34:13;91013.72;;;3.85;100.00
53300;BME280;39187;48.476;8.310;2023-12-14T09:36:39;91017.88;;;3.90;100.00
53300;BME280;39187;48.476;8.310;2023-12-14T09:39:05;91019.75;;;4.00;100.00
53300;BME280;39187;48.476;8.310;2023-12-14T09:41:31;91017.84;;;4.04;100.00
53300;BME280;39187;48.476;8.310;2023-12-14T09:43:56;91026.50;;;3.94;100.00
53300;BME280;39187;48.476;8.310;2023-12-14T09:46:25;91025.38;;;4.06;100.00
53300;BME280;39187;48.476;8.310;2023-12-14T09:48:53;91026.13;;;4.06;100.00
53300;BME280;39187;48.476;8.310;2023-12-14T09:51:20;91029.16;;;4.08;100.00
53300;BME280;39187;48.476;8.310;2023-12-14T09:53:45;91028.75;;;3.81;100.00
53300;BME280;39187;48.476;8.310;2023-12-14T09:56:11;91026.91;;;3.96;100.00
53300;BME280;39187;48.476;8.310;2023-12-14T09:58:37;91040.44;;;4.09;100.00
53300;BME280;39187;48.476;8.310;2023-12-14T10:01:20;91041.56;;;4.11;100.00
53300;BME280;39187;48.476;8.310;2023-12-14T10:03:46;91050.56;;;4.17;100.00
53300;BME280;39187;48.476;8.310;2023-12-14T10:06:11;91052.06;;;4.04;100.00
53300;BME280;39187;48.476;8.310;2023-12-14T10:08:37;91058.50;;;4.14;100.00
53300;BME280;39187;48.476;8.310;2023-12-14T10:11:14;91064.88;;;3.95;100.00
53300;BME280;39187;48.476;8.310;2023-12-14T10:13:40;91061.88;;;3.93;100.00
53300;BME280;39187;48.476;8.310;2023-12-14T10:16:07;91062.25;;;4.09;100.00
53300;BME280;39187;48.476;8.310;2023-12-14T10:18:33;91068.66;;;4.15;100.00
53300;BME280;39187;48.476;8.310;2023-12-14T10:21:02;91067.53;;;4.20;100.00
53300;BME280;39187;48.476;8.310;2023-12-14T10:23:28;91075.78;;;4.11;100.00
53300;BME280;39187;48.476;8.310;2023-12-14T10:25:54;91075.41;;;4.23;100.00
53300;BME280;39187;48.476;8.310;2023-12-14T10:28:21;91073.16;;;4.25;100.00
53300;BME280;39187;48.476;8.310;2023-12-14T10:30:47;91081.81;;;4.29;100.00
53300;BME280;39187;48.476;8.310;2023-12-14T10:33:12;91087.44;;;4.10;100.00
53300;BME280;39187;48.476;8.310;2023-12-14T10:35:39;91089.34;;;4.13;100.00
53300;BME280;39187;48.476;8.310;2023-12-14T10:38:07;91093.06;;;3.91;100.00
53300;BME280;39187;48.476;8.310;2023-12-14T10:40:35;91094.97;;;3.94;100.00
53300;BME280;39187;48.476;8.310;2023-12-14T10:43:06;91096.84;;;4.00;100.00
53300;BME280;39187;48.476;8.310;2023-12-14T10:45:32;91099.47;;;4.04;100.00
53300;BME280;39187;48.476;8.310;2023-12-14T10:47:59;91099.13;;;4.09;100.00
53300;BME280;39187;48.476;8.310;2023-12-14T10:50:29;91105.13;;;4.13;100.00
53300;BME280;39187;48.476;8.310;2023-12-14T10:52:57;91107.00;;;3.95;100.00
53300;BME280;39187;48.476;8.310;2023-12-14T10:55:28;91112.28;;;3.95;100.00
53300;BME280;39187;48.476;8.310;2023-12-14T10:57:59;91107.41;;;4.15;100.00
53300;BME280;39187;48.476;8.310;2023-12-14T11:00:26;91107.78;;;4.20;100.00
53300;BME280;39187;48.476;8.310;2023-12-14T11:02:52;91115.31;;;4.29;100.00
53300;BME280;39187;48.476;8.310;2023-12-14T11:05:18;91124.31;;;4.24;100.00
53300;BME280;39187;48.476;8.310;2023-12-14T11:07:53;91129.22;;;4.26;100.00
53300;BME280;39187;48.476;8.310;2023-12-14T11:10:27;91131.13;;;4.29;100.00
53300;BME280;39187;48.476;8.310;2023-12-14T11:15:25;91126.19;;;4.06;100.00
53300;BME280;39187;48.476;8.310;2023-12-14T11:23:16;91139.75;;;4.12;100.00
53300;BME280;39187;48.476;8.310;2023-12-14T11:25:48;91136.75;;;4.02;100.00
53300;BME280;39187;48.476;8.310;2023-12-14T11:28:15;91136.31;;;3.97;100.00
53300;BME280;39187;48.476;8.310;2023-12-14T11:30:43;91141.63;;;4.08;100.00
53300;BME280;39187;48.476;8.310;2023-12-14T11:33:11;91144.25;;;4.04;100.00
53300;BME280;39187;48.476;8.310;2023-12-14T11:35:37;91155.56;;;4.15;100.00
53300;BME280;39187;48.476;8.310;2023-12-14T11:38:03;91157.41;;;4.00;100.00
53300;BME280;39187;48.476;8.310;2023-12-14T11:40:44;91157.81;;;4.06;100.00
53300;BME280;39187;48.476;8.310;2023-12-14T11:43:10;91166.03;;;3.87;100.00
53300;BME280;39187;48.476;8.310;2023-12-14T11:45:40;91167.56;;;4.06;100.00
53300;BME280;39187;48.476;8.310;2023-12-14T11:48:10;91178.09;;;4.06;100.00
53300;BME280;39187;48.476;8.310;2023-12-14T11:50:38;91181.47;;;3.95;100.00
53300;BME280;39187;48.476;8.310;2023-12-14T11:53:04;91179.59;;;3.96;100.00
53300;BME280;39187;48.476;8.310;2023-12-14T11:55:38;91174.28;;;3.71;100.00
53300;BME280;39187;48.476;8.310;2023-12-14T11:58:04;91176.94;;;3.89;100.00
53300;BME280;39187;48.476;8.310;2023-12-14T12:00:31;91175.81;;;3.83;100.00
53300;BME280;39187;48.476;8.310;2023-12-14T12:05:37;91185.59;;;3.89;100.00
53300;BME280;39187;48.476;8.310;2023-12-14T12:08:04;91187.13;;;3.97;100.00
53300;BME280;39187;48.476;8.310;2023-12-14T12:10:29;91189.38;;;3.95;100.00
53300;BME280;39187;48.476;8.310;2023-12-14T12:13:11;91186.69;;;3.81;100.00
53300;BME280;39187;48.476;8.310;2023-12-14T12:15:37;91182.13;;;3.60;100.00
53300;BME280;39187;48.476;8.310;2023-12-14T12:18:07;91189.28;;;3.67;100.00
53300;BME280;39187;48.476;8.310;2023-12-14T12:20:33;91196.47;;;3.81;100.00
53300;BME280;39187;48.476;8.310;2023-12-14T12:23:00;91194.91;;;3.62;100.00
53300;BME280;39187;48.476;8.310;2023-12-14T12:25:26;91196.50;;;3.91;100.00
53300;BME280;39187;48.476;8.310;2023-12-14T12:27:54;91201.41;;;3.93;100.00
53300;BME280;39187;48.476;8.310;2023-12-14T12:30:20;91193.47;;;3.82;100.00
53300;BME280;39187;48.476;8.310;2023-12-14T12:32:46;91193.91;;;3.95;100.00
53300;BME280;39187;48.476;8.310;2023-12-14T12:35:11;91198.38;;;3.91;100.00
53300;BME280;39187;48.476;8.310;2023-12-14T12:37:37;91191.25;;;3.95;100.00
53300;BME280;39187;48.476;8.310;2023-12-14T12:40:03;91199.13;;;3.91;100.00
53300;BME280;39187;48.476;8.310;2023-12-14T12:42:29;91193.47;;;3.82;100.00
53300;BME280;39187;48.476;8.310;2023-12-14T12:44:55;91193.47;;;3.86;100.00
53300;BME280;39187;48.476;8.310;2023-12-14T12:47:20;91202.47;;;3.74;100.00
53300;BME280;39187;48.476;8.310;2023-12-14T12:49:45;91202.47;;;3.78;100.00
53300;BME280;39187;48.476;8.310;2023-12-14T12:52:11;91212.56;;;3.61;100.00
53300;BME280;39187;48.476;8.310;2023-12-14T12:54:36;91213.69;;;3.60;100.00
53300;BME280;39187;48.476;8.310;2023-12-14T12:57:02;91216.72;;;3.66;100.00
53300;BME280;39187;48.476;8.310;2023-12-14T12:59:28;91223.50;;;3.63;100.00
53300;BME280;39187;48.476;8.310;2023-12-14T13:01:53;91215.19;;;3.61;100.00
53300;BME280;39187;48.476;8.310;2023-12-14T13:04:20;91218.56;;;3.55;100.00